sensor_id;sensor_type;location;lat;lon;timestamp;P1;durP1;ratioP1;P2;durP2;ratioP2
69841;SDS011;57138;51.326;-0.068;2023-06-22T00:01:12;14.00;;;8.43;;
69841;SDS011;57138;51.326;-0.068;2023-06-22T00:03:37;15.02;;;7.50;;
69841;SDS011;57138;51.326;-0.068;2023-06-22T00:06:03;15.23;;;7.85;;
69841;SDS011;57138;51.326;-0.068;2023-06-22T00:08:28;17.45;;;9.30;;
69841;SDS011;57138;51.326;-0.068;2023-06-22T00:10:54;16.98;;;9.38;;
69841;SDS011;57138;51.326;-0.068;2023-06-22T00:13:20;12.35;;;7.63;;
69841;SDS011;57138;51.326;-0.068;2023-06-22T00:15:46;12.93;;;7.88;;
69841;SDS011;57138;51.326;-0.068;2023-06-22T00:18:12;13.00;;;8.02;;
69841;SDS011;57138;51.326;-0.068;2023-06-22T00:20:38;13.98;;;7.68;;
69841;SDS011;57138;51.326;-0.068;2023-06-22T00:23:05;15.18;;;7.25;;
69841;SDS011;57138;51.326;-0.068;2023-06-22T00:25:35;12.30;;;7.18;;
69841;SDS011;57138;51.326;-0.068;2023-06-22T00:28:01;9.27;;;6.68;;
69841;SDS011;57138;51.326;-0.068;2023-06-22T00:30:28;12.73;;;7.80;;
69841;SDS011;57138;51.326;-0.068;2023-06-22T00:32:53;11.18;;;7.40;;
69841;SDS011;57138;51.326;-0.068;2023-06-22T00:35:18;15.63;;;7.78;;
69841;SDS011;57138;51.326;-0.068;2023-06-22T00:37:44;13.00;;;7.43;;
69841;SDS011;57138;51.326;-0.068;2023-06-22T00:40:09;11.27;;;7.93;;
69841;SDS011;57138;51.326;-0.068;2023-06-22T00:42:40;14.00;;;7.30;;
69841;SDS011;57138;51.326;-0.068;2023-06-22T00:45:06;12.02;;;7.00;;
69841;SDS011;57138;51.326;-0.068;2023-06-22T00:47:36;15.23;;;8.00;;
69841;SDS011;57138;51.326;-0.068;2023-06-22T00:50:03;16.15;;;7.97;;
69841;SDS011;57138;51.326;-0.068;2023-06-22T00:52:32;10.88;;;7.35;;
69841;SDS011;57138;51.326;-0.068;2023-06-22T00:55:00;12.35;;;7.50;;
69841;SDS011;57138;51.326;-0.068;2023-06-22T00:57:27;15.43;;;7.82;;
69841;SDS011;57138;51.326;-0.068;2023-06-22T00:59:53;15.30;;;7.75;;
69841;SDS011;57138;51.326;-0.068;2023-06-22T01:02:19;17.23;;;8.43;;
69841;SDS011;57138;51.326;-0.068;2023-06-22T01:04:45;15.00;;;7.78;;
69841;SDS011;57138;51.326;-0.068;2023-06-22T01:07:11;9.57;;;6.72;;
69841;SDS011;57138;51.326;-0.068;2023-06-22T01:09:52;14.23;;;7.78;;
69841;SDS011;57138;51.326;-0.068;2023-06-22T01:12:34;9.73;;;7.30;;
69841;SDS011;57138;51.326;-0.068;2023-06-22T01:15:27;13.10;;;7.22;;
69841;SDS011;57138;51.326;-0.068;2023-06-22T01:17:56;12.20;;;7.20;;
69841;SDS011;57138;51.326;-0.068;2023-06-22T01:20:24;11.25;;;6.75;;
69841;SDS011;57138;51.326;-0.068;2023-06-22T01:23:03;10.10;;;6.68;;
69841;SDS011;57138;51.326;-0.068;2023-06-22T01:25:46;11.98;;;6.88;;
69841;SDS011;57138;51.326;-0.068;2023-06-22T01:31:02;11.95;;;6.90;;
69841;SDS011;57138;51.326;-0.068;2023-06-22T01:33:31;10.75;;;6.75;;
69841;SDS011;57138;51.326;-0.068;2023-06-22T01:35:59;10.52;;;6.05;;
69841;SDS011;57138;51.326;-0.068;2023-06-22T01:38:28;9.65;;;6.40;;
69841;SDS011;57138;51.326;-0.068;2023-06-22T01:40:54;10.68;;;7.15;;
69841;SDS011;57138;51.326;-0.068;2023-06-22T01:43:22;9.63;;;6.28;;
69841;SDS011;57138;51.326;-0.068;2023-06-22T01:45:51;11.95;;;6.25;;
69841;SDS011;57138;51.326;-0.068;2023-06-22T01:48:18;8.18;;;5.72;;
69841;SDS011;57138;51.326;-0.068;2023-06-22T01:50:44;10.90;;;6.97;;
69841;SDS011;57138;51.326;-0.068;2023-06-22T01:53:10;10.18;;;6.50;;
69841;SDS011;57138;51.326;-0.068;2023-06-22T01:55:35;11.80;;;5.82;;
69841;SDS011;57138;51.326;-0.068;2023-06-22T01:58:01;11.73;;;6.82;;
69841;SDS011;57138;51.326;-0.068;2023-06-22T02:00:26;8.45;;;5.53;;
69841;SDS011;57138;51.326;-0.068;2023-06-22T02:02:59;11.82;;;6.30;;
69841;SDS011;57138;51.326;-0.068;2023-06-22T02:05:33;10.52;;;6.82;;
69841;SDS011;57138;51.326;-0.068;2023-06-22T02:10:48;10.80;;;6.60;;
69841;SDS011;57138;51.326;-0.068;2023-06-22T02:13:14;12.40;;;6.22;;
69841;SDS011;57138;51.326;-0.068;2023-06-22T02:15:40;18.17;;;7.50;;
69841;SDS011;57138;51.326;-0.068;2023-06-22T02:18:06;10.27;;;6.68;;
69841;SDS011;57138;51.326;-0.068;2023-06-22T02:20:32;9.60;;;6.40;;
69841;SDS011;57138;51.326;-0.068;2023-06-22T02:22:57;11.23;;;6.85;;
69841;SDS011;57138;51.326;-0.068;2023-06-22T02:25:23;11.75;;;6.95;;
69841;SDS011;57138;51.326;-0.068;2023-06-22T02:27:48;10.32;;;6.53;;
69841;SDS011;57138;51.326;-0.068;2023-06-22T02:30:14;10.23;;;6.13;;
69841;SDS011;57138;51.326;-0.068;2023-06-22T02:32:41;9.35;;;6.18;;
69841;SDS011;57138;51.326;-0.068;2023-06-22T02:35:08;8.90;;;5.90;;
69841;SDS011;57138;51.326;-0.068;2023-06-22T02:37:35;10.95;;;6.15;;
69841;SDS011;57138;51.326;-0.068;2023-06-22T02:40:04;9.18;;;6.15;;
69841;SDS011;57138;51.326;-0.068;2023-06-22T02:42:32;13.25;;;6.75;;
69841;SDS011;57138;51.326;-0.068;2023-06-22T02:44:57;10.40;;;5.95;;
69841;SDS011;57138;51.326;-0.068;2023-06-22T02:47:23;10.43;;;5.90;;
69841;SDS011;57138;51.326;-0.068;2023-06-22T02:49:48;10.90;;;5.97;;
69841;SDS011;57138;51.326;-0.068;2023-06-22T02:52:14;12.07;;;6.70;;
69841;SDS011;57138;51.326;-0.068;2023-06-22T02:54:39;15.32;;;7.40;;
69841;SDS011;57138;51.326;-0.068;2023-06-22T02:57:04;14.18;;;6.72;;
69841;SDS011;57138;51.326;-0.068;2023-06-22T02:59:30;14.05;;;8.00;;
69841;SDS011;57138;51.326;-0.068;2023-06-22T03:01:55;12.85;;;7.30;;
69841;SDS011;57138;51.326;-0.068;2023-06-22T03:04:21;10.27;;;7.03;;
69841;SDS011;57138;51.326;-0.068;2023-06-22T03:06:46;13.02;;;7.03;;
69841;SDS011;57138;51.326;-0.068;2023-06-22T03:09:16;11.98;;;6.85;;
69841;SDS011;57138;51.326;-0.068;2023-06-22T03:11:42;11.55;;;7.72;;
69841;SDS011;57138;51.326;-0.068;2023-06-22T03:14:08;16.55;;;7.57;;
69841;SDS011;57138;51.326;-0.068;2023-06-22T03:16:34;13.07;;;7.88;;
69841;SDS011;57138;51.326;-0.068;2023-06-22T03:18:59;11.15;;;8.20;;
69841;SDS011;57138;51.326;-0.068;2023-06-22T03:21:27;10.40;;;7.65;;
69841;SDS011;57138;51.326;-0.068;2023-06-22T03:23:53;12.57;;;8.00;;
69841;SDS011;57138;51.326;-0.068;2023-06-22T03:26:18;12.32;;;7.65;;
69841;SDS011;57138;51.326;-0.068;2023-06-22T03:28:48;11.63;;;7.43;;
69841;SDS011;57138;51.326;-0.068;2023-06-22T03:31:14;11.77;;;7.55;;
69841;SDS011;57138;51.326;-0.068;2023-06-22T03:33:40;13.65;;;8.68;;
69841;SDS011;57138;51.326;-0.068;2023-06-22T03:36:06;13.35;;;8.43;;
69841;SDS011;57138;51.326;-0.068;2023-06-22T03:38:32;12.68;;;7.90;;
69841;SDS011;57138;51.326;-0.068;2023-06-22T03:40:57;15.10;;;8.75;;
69841;SDS011;57138;51.326;-0.068;2023-06-22T03:43:23;12.82;;;8.55;;
69841;SDS011;57138;51.326;-0.068;2023-06-22T03:45:48;15.18;;;8.52;;
69841;SDS011;57138;51.326;-0.068;2023-06-22T03:48:13;16.95;;;9.35;;
69841;SDS011;57138;51.326;-0.068;2023-06-22T03:50:39;13.38;;;8.27;;
69841;SDS011;57138;51.326;-0.068;2023-06-22T03:53:06;12.00;;;7.90;;
69841;SDS011;57138;51.326;-0.068;2023-06-22T03:55:33;14.00;;;9.23;;
69841;SDS011;57138;51.326;-0.068;2023-06-22T03:57:59;14.55;;;9.35;;
69841;SDS011;57138;51.326;-0.068;2023-06-22T04:00:31;13.98;;;8.88;;
69841;SDS011;57138;51.326;-0.068;2023-06-22T04:02:57;14.60;;;8.02;;
69841;SDS011;57138;51.326;-0.068;2023-06-22T04:05:23;12.63;;;8.30;;
69841;SDS011;57138;51.326;-0.068;2023-06-22T04:07:49;14.18;;;8.77;;
69841;SDS011;57138;51.326;-0.068;2023-06-22T04:10:14;16.08;;;8.77;;
69841;SDS011;57138;51.326;-0.068;2023-06-22T04:12:40;12.98;;;8.77;;
69841;SDS011;57138;51.326;-0.068;2023-06-22T04:15:05;11.25;;;8.27;;
69841;SDS011;57138;51.326;-0.068;2023-06-22T04:17:32;14.73;;;8.43;;
69841;SDS011;57138;51.326;-0.068;2023-06-22T04:19:58;13.45;;;8.93;;
69841;SDS011;57138;51.326;-0.068;2023-06-22T04:22:23;12.38;;;7.78;;
69841;SDS011;57138;51.326;-0.068;2023-06-22T04:24:49;15.57;;;8.52;;
69841;SDS011;57138;51.326;-0.068;2023-06-22T04:27:16;14.55;;;8.52;;
69841;SDS011;57138;51.326;-0.068;2023-06-22T04:29:43;11.20;;;7.90;;
69841;SDS011;57138;51.326;-0.068;2023-06-22T04:32:16;15.18;;;8.70;;
69841;SDS011;57138;51.326;-0.068;2023-06-22T04:34:42;16.75;;;9.15;;
69841;SDS011;57138;51.326;-0.068;2023-06-22T04:37:08;16.42;;;10.10;;
69841;SDS011;57138;51.326;-0.068;2023-06-22T04:39:33;16.25;;;10.57;;
69841;SDS011;57138;51.326;-0.068;2023-06-22T04:41:59;19.63;;;10.57;;
69841;SDS011;57138;51.326;-0.068;2023-06-22T04:44:27;15.68;;;10.82;;
69841;SDS011;57138;51.326;-0.068;2023-06-22T04:46:54;16.42;;;10.15;;
69841;SDS011;57138;51.326;-0.068;2023-06-22T04:49:33;18.10;;;10.52;;
69841;SDS011;57138;51.326;-0.068;2023-06-22T04:52:03;17.88;;;10.27;;
69841;SDS011;57138;51.326;-0.068;2023-06-22T04:54:31;15.50;;;10.18;;
69841;SDS011;57138;51.326;-0.068;2023-06-22T04:57:01;14.27;;;9.85;;
69841;SDS011;57138;51.326;-0.068;2023-06-22T04:59:29;18.05;;;9.93;;
69841;SDS011;57138;51.326;-0.068;2023-06-22T05:01:55;17.60;;;9.90;;
69841;SDS011;57138;51.326;-0.068;2023-06-22T05:04:25;18.85;;;11.43;;
69841;SDS011;57138;51.326;-0.068;2023-06-22T05:06:53;19.90;;;10.85;;
69841;SDS011;57138;51.326;-0.068;2023-06-22T05:09:19;19.00;;;11.02;;
69841;SDS011;57138;51.326;-0.068;2023-06-22T05:11:45;13.20;;;8.55;;
69841;SDS011;57138;51.326;-0.068;2023-06-22T05:14:12;17.77;;;9.90;;
69841;SDS011;57138;51.326;-0.068;2023-06-22T05:16:40;16.83;;;10.43;;
69841;SDS011;57138;51.326;-0.068;2023-06-22T05:19:06;17.35;;;10.68;;
69841;SDS011;57138;51.326;-0.068;2023-06-22T05:21:31;16.60;;;10.23;;
69841;SDS011;57138;51.326;-0.068;2023-06-22T05:23:57;18.52;;;10.82;;
69841;SDS011;57138;51.326;-0.068;2023-06-22T05:26:29;18.13;;;9.80;;
69841;SDS011;57138;51.326;-0.068;2023-06-22T05:28:56;16.15;;;9.07;;
69841;SDS011;57138;51.326;-0.068;2023-06-22T05:31:21;12.45;;;8.20;;
69841;SDS011;57138;51.326;-0.068;2023-06-22T05:33:47;18.15;;;9.52;;
69841;SDS011;57138;51.326;-0.068;2023-06-22T05:36:14;16.15;;;9.20;;
69841;SDS011;57138;51.326;-0.068;2023-06-22T05:38:40;13.18;;;8.30;;
69841;SDS011;57138;51.326;-0.068;2023-06-22T05:41:06;13.52;;;9.65;;
69841;SDS011;57138;51.326;-0.068;2023-06-22T05:43:32;15.52;;;10.00;;
69841;SDS011;57138;51.326;-0.068;2023-06-22T05:45:57;13.45;;;9.10;;
69841;SDS011;57138;51.326;-0.068;2023-06-22T05:48:26;15.50;;;9.73;;
69841;SDS011;57138;51.326;-0.068;2023-06-22T05:50:52;16.52;;;8.77;;
69841;SDS011;57138;51.326;-0.068;2023-06-22T05:53:18;14.40;;;9.50;;
69841;SDS011;57138;51.326;-0.068;2023-06-22T05:55:44;14.07;;;9.43;;
69841;SDS011;57138;51.326;-0.068;2023-06-22T05:58:09;13.77;;;8.65;;
69841;SDS011;57138;51.326;-0.068;2023-06-22T06:00:35;18.17;;;8.88;;
69841;SDS011;57138;51.326;-0.068;2023-06-22T06:03:00;18.83;;;9.82;;
69841;SDS011;57138;51.326;-0.068;2023-06-22T06:05:32;18.80;;;10.13;;
69841;SDS011;57138;51.326;-0.068;2023-06-22T06:07:59;17.20;;;8.30;;
69841;SDS011;57138;51.326;-0.068;2023-06-22T06:10:29;13.68;;;9.20;;
69841;SDS011;57138;51.326;-0.068;2023-06-22T06:12:55;15.68;;;9.32;;
69841;SDS011;57138;51.326;-0.068;2023-06-22T06:15:21;16.92;;;9.07;;
69841;SDS011;57138;51.326;-0.068;2023-06-22T06:17:47;16.00;;;8.77;;
69841;SDS011;57138;51.326;-0.068;2023-06-22T06:20:20;14.00;;;8.63;;
69841;SDS011;57138;51.326;-0.068;2023-06-22T06:22:46;15.02;;;9.30;;
69841;SDS011;57138;51.326;-0.068;2023-06-22T06:25:13;12.23;;;8.13;;
69841;SDS011;57138;51.326;-0.068;2023-06-22T06:27:47;12.20;;;7.93;;
69841;SDS011;57138;51.326;-0.068;2023-06-22T06:30:15;14.18;;;8.35;;
69841;SDS011;57138;51.326;-0.068;2023-06-22T06:32:41;13.85;;;8.95;;
69841;SDS011;57138;51.326;-0.068;2023-06-22T06:35:11;13.40;;;7.95;;
69841;SDS011;57138;51.326;-0.068;2023-06-22T06:37:38;19.88;;;9.15;;
69841;SDS011;57138;51.326;-0.068;2023-06-22T06:40:06;17.88;;;8.63;;
69841;SDS011;57138;51.326;-0.068;2023-06-22T06:42:35;15.00;;;8.40;;
69841;SDS011;57138;51.326;-0.068;2023-06-22T06:45:03;13.80;;;8.93;;
69841;SDS011;57138;51.326;-0.068;2023-06-22T06:47:30;12.77;;;7.63;;
69841;SDS011;57138;51.326;-0.068;2023-06-22T06:49:56;13.85;;;8.40;;
69841;SDS011;57138;51.326;-0.068;2023-06-22T06:52:21;16.10;;;8.82;;
69841;SDS011;57138;51.326;-0.068;2023-06-22T06:54:46;18.02;;;8.07;;
69841;SDS011;57138;51.326;-0.068;2023-06-22T06:57:12;18.52;;;9.75;;
69841;SDS011;57138;51.326;-0.068;2023-06-22T06:59:38;18.38;;;9.00;;
69841;SDS011;57138;51.326;-0.068;2023-06-22T07:02:04;16.70;;;9.20;;
69841;SDS011;57138;51.326;-0.068;2023-06-22T07:04:33;14.00;;;8.40;;
69841;SDS011;57138;51.326;-0.068;2023-06-22T07:07:01;14.23;;;8.68;;
69841;SDS011;57138;51.326;-0.068;2023-06-22T07:09:27;15.88;;;8.13;;
69841;SDS011;57138;51.326;-0.068;2023-06-22T07:11:52;14.52;;;7.97;;
69841;SDS011;57138;51.326;-0.068;2023-06-22T07:14:18;13.57;;;8.02;;
69841;SDS011;57138;51.326;-0.068;2023-06-22T07:16:43;13.55;;;7.60;;
69841;SDS011;57138;51.326;-0.068;2023-06-22T07:19:11;15.68;;;8.60;;
69841;SDS011;57138;51.326;-0.068;2023-06-22T07:21:40;12.02;;;7.78;;
69841;SDS011;57138;51.326;-0.068;2023-06-22T07:24:06;14.18;;;8.13;;
69841;SDS011;57138;51.326;-0.068;2023-06-22T07:26:32;18.27;;;9.02;;
69841;SDS011;57138;51.326;-0.068;2023-06-22T07:28:58;12.65;;;7.63;;
69841;SDS011;57138;51.326;-0.068;2023-06-22T07:31:24;18.98;;;7.50;;
69841;SDS011;57138;51.326;-0.068;2023-06-22T07:33:50;11.60;;;7.35;;
69841;SDS011;57138;51.326;-0.068;2023-06-22T07:36:16;15.00;;;6.85;;
69841;SDS011;57138;51.326;-0.068;2023-06-22T07:38:43;10.75;;;6.05;;
69841;SDS011;57138;51.326;-0.068;2023-06-22T07:41:11;11.00;;;6.90;;
69841;SDS011;57138;51.326;-0.068;2023-06-22T07:43:37;12.75;;;6.20;;
69841;SDS011;57138;51.326;-0.068;2023-06-22T07:46:03;11.65;;;5.28;;
69841;SDS011;57138;51.326;-0.068;2023-06-22T07:48:29;12.45;;;6.35;;
69841;SDS011;57138;51.326;-0.068;2023-06-22T07:50:55;14.18;;;6.47;;
69841;SDS011;57138;51.326;-0.068;2023-06-22T07:53:21;10.52;;;6.15;;
69841;SDS011;57138;51.326;-0.068;2023-06-22T07:55:48;10.60;;;5.28;;
69841;SDS011;57138;51.326;-0.068;2023-06-22T07:58:14;14.00;;;5.88;;
69841;SDS011;57138;51.326;-0.068;2023-06-22T08:00:41;9.35;;;5.90;;
69841;SDS011;57138;51.326;-0.068;2023-06-22T08:03:07;11.90;;;5.95;;
69841;SDS011;57138;51.326;-0.068;2023-06-22T08:05:33;14.55;;;6.05;;
69841;SDS011;57138;51.326;-0.068;2023-06-22T08:07:59;12.02;;;5.50;;
69841;SDS011;57138;51.326;-0.068;2023-06-22T08:10:24;8.68;;;5.78;;
69841;SDS011;57138;51.326;-0.068;2023-06-22T08:12:56;10.23;;;5.40;;
69841;SDS011;57138;51.326;-0.068;2023-06-22T08:15:26;13.95;;;6.28;;
69841;SDS011;57138;51.326;-0.068;2023-06-22T08:17:52;10.77;;;6.72;;
69841;SDS011;57138;51.326;-0.068;2023-06-22T08:20:18;10.55;;;6.22;;
69841;SDS011;57138;51.326;-0.068;2023-06-22T08:22:43;12.70;;;5.40;;
69841;SDS011;57138;51.326;-0.068;2023-06-22T08:25:10;8.05;;;4.63;;
69841;SDS011;57138;51.326;-0.068;2023-06-22T08:27:37;10.43;;;5.40;;
69841;SDS011;57138;51.326;-0.068;2023-06-22T08:30:02;9.55;;;5.20;;
69841;SDS011;57138;51.326;-0.068;2023-06-22T08:32:28;9.43;;;4.85;;
69841;SDS011;57138;51.326;-0.068;2023-06-22T08:34:54;11.20;;;4.88;;
69841;SDS011;57138;51.326;-0.068;2023-06-22T08:37:21;9.55;;;4.38;;
69841;SDS011;57138;51.326;-0.068;2023-06-22T08:39:58;8.80;;;4.15;;
69841;SDS011;57138;51.326;-0.068;2023-06-22T08:42:26;8.20;;;3.75;;
69841;SDS011;57138;51.326;-0.068;2023-06-22T08:44:52;11.10;;;5.03;;
69841;SDS011;57138;51.326;-0.068;2023-06-22T08:47:17;10.18;;;4.75;;
69841;SDS011;57138;51.326;-0.068;2023-06-22T08:49:43;9.35;;;4.85;;
69841;SDS011;57138;51.326;-0.068;2023-06-22T08:52:09;14.27;;;4.80;;
69841;SDS011;57138;51.326;-0.068;2023-06-22T08:54:34;8.88;;;5.15;;
69841;SDS011;57138;51.326;-0.068;2023-06-22T08:57:00;11.80;;;5.88;;
69841;SDS011;57138;51.326;-0.068;2023-06-22T08:59:27;6.95;;;4.55;;
69841;SDS011;57138;51.326;-0.068;2023-06-22T09:01:52;11.30;;;5.05;;
69841;SDS011;57138;51.326;-0.068;2023-06-22T09:04:17;9.07;;;5.20;;
69841;SDS011;57138;51.326;-0.068;2023-06-22T09:06:43;12.45;;;5.85;;
69841;SDS011;57138;51.326;-0.068;2023-06-22T09:09:12;13.35;;;5.13;;
69841;SDS011;57138;51.326;-0.068;2023-06-22T09:11:38;10.55;;;6.22;;
69841;SDS011;57138;51.326;-0.068;2023-06-22T09:14:03;16.92;;;6.03;;
69841;SDS011;57138;51.326;-0.068;2023-06-22T09:16:32;10.30;;;4.68;;
69841;SDS011;57138;51.326;-0.068;2023-06-22T09:18:59;8.25;;;4.60;;
69841;SDS011;57138;51.326;-0.068;2023-06-22T09:21:25;9.05;;;4.60;;
69841;SDS011;57138;51.326;-0.068;2023-06-22T09:23:51;8.35;;;4.80;;
69841;SDS011;57138;51.326;-0.068;2023-06-22T09:26:20;10.07;;;5.00;;
69841;SDS011;57138;51.326;-0.068;2023-06-22T09:28:48;12.57;;;5.38;;
69841;SDS011;57138;51.326;-0.068;2023-06-22T09:31:14;14.60;;;6.00;;
69841;SDS011;57138;51.326;-0.068;2023-06-22T09:33:41;9.70;;;5.28;;
69841;SDS011;57138;51.326;-0.068;2023-06-22T09:36:08;9.02;;;5.20;;
69841;SDS011;57138;51.326;-0.068;2023-06-22T09:38:35;10.90;;;4.68;;
69841;SDS011;57138;51.326;-0.068;2023-06-22T09:41:05;11.90;;;6.28;;
69841;SDS011;57138;51.326;-0.068;2023-06-22T09:43:32;11.48;;;4.60;;
69841;SDS011;57138;51.326;-0.068;2023-06-22T09:46:02;7.03;;;4.25;;
69841;SDS011;57138;51.326;-0.068;2023-06-22T09:48:29;11.27;;;5.85;;
69841;SDS011;57138;51.326;-0.068;2023-06-22T09:50:56;12.95;;;5.10;;
69841;SDS011;57138;51.326;-0.068;2023-06-22T09:53:22;10.15;;;5.03;;
69841;SDS011;57138;51.326;-0.068;2023-06-22T09:55:47;10.38;;;5.22;;
69841;SDS011;57138;51.326;-0.068;2023-06-22T09:58:18;7.65;;;4.80;;
69841;SDS011;57138;51.326;-0.068;2023-06-22T10:00:45;9.07;;;5.00;;
69841;SDS011;57138;51.326;-0.068;2023-06-22T10:03:13;11.93;;;5.88;;
69841;SDS011;57138;51.326;-0.068;2023-06-22T10:05:39;9.70;;;5.00;;
69841;SDS011;57138;51.326;-0.068;2023-06-22T10:08:05;10.65;;;5.13;;
69841;SDS011;57138;51.326;-0.068;2023-06-22T10:10:32;11.43;;;4.70;;
69841;SDS011;57138;51.326;-0.068;2023-06-22T10:13:02;11.18;;;5.25;;
69841;SDS011;57138;51.326;-0.068;2023-06-22T10:15:32;11.00;;;4.88;;
69841;SDS011;57138;51.326;-0.068;2023-06-22T10:17:57;8.52;;;4.38;;
69841;SDS011;57138;51.326;-0.068;2023-06-22T10:20:23;9.63;;;4.63;;
69841;SDS011;57138;51.326;-0.068;2023-06-22T10:22:49;8.00;;;4.47;;
69841;SDS011;57138;51.326;-0.068;2023-06-22T10:25:16;9.25;;;4.32;;
69841;SDS011;57138;51.326;-0.068;2023-06-22T10:27:42;9.90;;;4.55;;
69841;SDS011;57138;51.326;-0.068;2023-06-22T10:30:08;8.30;;;3.80;;
69841;SDS011;57138;51.326;-0.068;2023-06-22T10:32:34;6.80;;;4.13;;
69841;SDS011;57138;51.326;-0.068;2023-06-22T10:35:00;9.15;;;4.40;;
69841;SDS011;57138;51.326;-0.068;2023-06-22T10:37:25;8.05;;;3.90;;
69841;SDS011;57138;51.326;-0.068;2023-06-22T10:39:50;10.50;;;4.72;;
69841;SDS011;57138;51.326;-0.068;2023-06-22T10:42:16;9.18;;;4.50;;
69841;SDS011;57138;51.326;-0.068;2023-06-22T10:44:42;11.80;;;4.25;;
69841;SDS011;57138;51.326;-0.068;2023-06-22T10:47:11;8.40;;;4.78;;
69841;SDS011;57138;51.326;-0.068;2023-06-22T10:49:38;6.95;;;3.72;;
69841;SDS011;57138;51.326;-0.068;2023-06-22T10:52:06;8.55;;;4.68;;
69841;SDS011;57138;51.326;-0.068;2023-06-22T11:10:07;6.00;;;3.65;;
69841;SDS011;57138;51.326;-0.068;2023-06-22T11:12:47;8.73;;;4.22;;
69841;SDS011;57138;51.326;-0.068;2023-06-22T11:15:42;6.72;;;3.90;;
69841;SDS011;57138;51.326;-0.068;2023-06-22T11:25:36;10.25;;;4.45;;
69841;SDS011;57138;51.326;-0.068;2023-06-22T11:28:18;7.25;;;4.10;;
69841;SDS011;57138;51.326;-0.068;2023-06-22T11:31:19;8.77;;;4.18;;
69841;SDS011;57138;51.326;-0.068;2023-06-22T11:34:11;10.25;;;4.10;;
69841;SDS011;57138;51.326;-0.068;2023-06-22T11:36:52;6.88;;;4.10;;
69841;SDS011;57138;51.326;-0.068;2023-06-22T11:39:32;7.90;;;4.03;;
69841;SDS011;57138;51.326;-0.068;2023-06-22T11:42:13;7.75;;;3.83;;
69841;SDS011;57138;51.326;-0.068;2023-06-22T11:44:50;7.95;;;4.05;;
69841;SDS011;57138;51.326;-0.068;2023-06-22T11:47:37;9.65;;;4.35;;
69841;SDS011;57138;51.326;-0.068;2023-06-22T11:50:19;6.95;;;4.72;;
69841;SDS011;57138;51.326;-0.068;2023-06-22T11:53:05;9.32;;;4.45;;
69841;SDS011;57138;51.326;-0.068;2023-06-22T11:55:50;7.53;;;3.88;;
69841;SDS011;57138;51.326;-0.068;2023-06-22T11:58:20;8.10;;;3.83;;
69841;SDS011;57138;51.326;-0.068;2023-06-22T12:00:47;13.27;;;4.15;;
69841;SDS011;57138;51.326;-0.068;2023-06-22T12:03:13;8.32;;;3.72;;
69841;SDS011;57138;51.326;-0.068;2023-06-22T12:05:51;9.15;;;3.63;;
69841;SDS011;57138;51.326;-0.068;2023-06-22T12:08:29;11.32;;;4.03;;
69841;SDS011;57138;51.326;-0.068;2023-06-22T12:11:00;8.32;;;4.00;;
69841;SDS011;57138;51.326;-0.068;2023-06-22T12:13:36;8.18;;;4.00;;
69841;SDS011;57138;51.326;-0.068;2023-06-22T12:16:07;7.10;;;4.03;;
69841;SDS011;57138;51.326;-0.068;2023-06-22T12:19:20;6.82;;;4.03;;
69841;SDS011;57138;51.326;-0.068;2023-06-22T12:22:10;9.20;;;4.67;;
69841;SDS011;57138;51.326;-0.068;2023-06-22T12:24:39;7.22;;;4.10;;
69841;SDS011;57138;51.326;-0.068;2023-06-22T12:27:08;7.93;;;3.70;;
69841;SDS011;57138;51.326;-0.068;2023-06-22T12:29:35;10.80;;;4.20;;
69841;SDS011;57138;51.326;-0.068;2023-06-22T12:35:59;8.18;;;3.97;;
69841;SDS011;57138;51.326;-0.068;2023-06-22T12:39:15;9.82;;;4.32;;
69841;SDS011;57138;51.326;-0.068;2023-06-22T12:42:02;7.97;;;4.28;;
69841;SDS011;57138;51.326;-0.068;2023-06-22T13:04:08;7.18;;;4.10;;
69841;SDS011;57138;51.326;-0.068;2023-06-22T13:06:36;7.25;;;4.00;;
69841;SDS011;57138;51.326;-0.068;2023-06-22T13:09:01;8.15;;;3.50;;
69841;SDS011;57138;51.326;-0.068;2023-06-22T13:11:30;8.75;;;4.05;;
69841;SDS011;57138;51.326;-0.068;2023-06-22T13:13:55;9.02;;;3.88;;
69841;SDS011;57138;51.326;-0.068;2023-06-22T13:16:21;7.93;;;3.65;;
69841;SDS011;57138;51.326;-0.068;2023-06-22T13:18:46;9.73;;;3.63;;
69841;SDS011;57138;51.326;-0.068;2023-06-22T13:21:12;7.65;;;3.08;;
69841;SDS011;57138;51.326;-0.068;2023-06-22T13:23:39;8.32;;;3.58;;
69841;SDS011;57138;51.326;-0.068;2023-06-22T13:26:06;8.70;;;3.55;;
69841;SDS011;57138;51.326;-0.068;2023-06-22T13:28:32;9.32;;;3.60;;
69841;SDS011;57138;51.326;-0.068;2023-06-22T13:30:58;8.07;;;3.95;;
69841;SDS011;57138;51.326;-0.068;2023-06-22T13:33:23;8.30;;;4.20;;
69841;SDS011;57138;51.326;-0.068;2023-06-22T13:35:49;8.27;;;3.78;;
69841;SDS011;57138;51.326;-0.068;2023-06-22T13:38:15;9.52;;;4.78;;
69841;SDS011;57138;51.326;-0.068;2023-06-22T13:40:40;7.50;;;4.28;;
69841;SDS011;57138;51.326;-0.068;2023-06-22T13:43:06;8.52;;;3.13;;
69841;SDS011;57138;51.326;-0.068;2023-06-22T13:45:32;9.18;;;3.30;;
69841;SDS011;57138;51.326;-0.068;2023-06-22T13:47:58;6.68;;;3.30;;
69841;SDS011;57138;51.326;-0.068;2023-06-22T13:50:24;9.05;;;3.45;;
69841;SDS011;57138;51.326;-0.068;2023-06-22T13:52:49;6.97;;;3.20;;
69841;SDS011;57138;51.326;-0.068;2023-06-22T13:55:15;8.93;;;3.55;;
69841;SDS011;57138;51.326;-0.068;2023-06-22T13:57:41;7.07;;;3.88;;
69841;SDS011;57138;51.326;-0.068;2023-06-22T14:00:06;9.07;;;4.47;;
69841;SDS011;57138;51.326;-0.068;2023-06-22T14:02:40;7.80;;;3.15;;
69841;SDS011;57138;51.326;-0.068;2023-06-22T14:05:06;8.40;;;3.38;;
69841;SDS011;57138;51.326;-0.068;2023-06-22T14:07:33;4.82;;;2.90;;
69841;SDS011;57138;51.326;-0.068;2023-06-22T14:09:59;11.40;;;3.45;;
69841;SDS011;57138;51.326;-0.068;2023-06-22T14:12:25;6.68;;;3.13;;
69841;SDS011;57138;51.326;-0.068;2023-06-22T14:14:51;5.60;;;2.80;;
69841;SDS011;57138;51.326;-0.068;2023-06-22T14:17:17;7.45;;;3.15;;
69841;SDS011;57138;51.326;-0.068;2023-06-22T14:19:42;5.03;;;2.72;;
69841;SDS011;57138;51.326;-0.068;2023-06-22T14:22:11;4.70;;;3.00;;
69841;SDS011;57138;51.326;-0.068;2023-06-22T14:24:36;6.53;;;2.80;;
69841;SDS011;57138;51.326;-0.068;2023-06-22T14:27:02;6.18;;;2.85;;
69841;SDS011;57138;51.326;-0.068;2023-06-22T14:29:28;5.20;;;3.00;;
69841;SDS011;57138;51.326;-0.068;2023-06-22T14:31:53;6.43;;;3.10;;
69841;SDS011;57138;51.326;-0.068;2023-06-22T14:34:23;5.65;;;3.00;;
69841;SDS011;57138;51.326;-0.068;2023-06-22T14:36:50;6.40;;;3.03;;
69841;SDS011;57138;51.326;-0.068;2023-06-22T14:39:17;7.40;;;3.20;;
69841;SDS011;57138;51.326;-0.068;2023-06-22T14:41:42;7.78;;;3.05;;
69841;SDS011;57138;51.326;-0.068;2023-06-22T14:44:08;8.68;;;2.85;;
69841;SDS011;57138;51.326;-0.068;2023-06-22T14:46:34;5.53;;;2.92;;
69841;SDS011;57138;51.326;-0.068;2023-06-22T14:49:00;7.10;;;2.85;;
69841;SDS011;57138;51.326;-0.068;2023-06-22T14:51:25;4.97;;;2.83;;
69841;SDS011;57138;51.326;-0.068;2023-06-22T14:53:52;5.55;;;2.53;;
69841;SDS011;57138;51.326;-0.068;2023-06-22T14:56:18;4.90;;;2.20;;
69841;SDS011;57138;51.326;-0.068;2023-06-22T14:58:44;7.28;;;2.63;;
69841;SDS011;57138;51.326;-0.068;2023-06-22T15:01:10;6.03;;;2.80;;
69841;SDS011;57138;51.326;-0.068;2023-06-22T15:03:36;6.22;;;2.70;;
69841;SDS011;57138;51.326;-0.068;2023-06-22T15:06:03;5.07;;;2.50;;
69841;SDS011;57138;51.326;-0.068;2023-06-22T15:08:29;6.95;;;2.65;;
69841;SDS011;57138;51.326;-0.068;2023-06-22T15:10:54;5.90;;;2.72;;
69841;SDS011;57138;51.326;-0.068;2023-06-22T15:13:20;4.45;;;2.42;;
69841;SDS011;57138;51.326;-0.068;2023-06-22T15:15:47;6.50;;;2.75;;
69841;SDS011;57138;51.326;-0.068;2023-06-22T15:18:14;5.97;;;2.70;;
69841;SDS011;57138;51.326;-0.068;2023-06-22T15:20:40;5.60;;;2.95;;
69841;SDS011;57138;51.326;-0.068;2023-06-22T15:23:09;5.68;;;2.70;;